createdAt,value
2019-03-12T17:14:08.034Z,97634.30
2019-03-12T17:16:37.769Z,97626.17
2019-03-12T17:19:07.770Z,97636.30
2019-03-12T17:21:37.750Z,97626.54
2019-03-12T17:27:31.001Z,97605.48
2019-03-12T17:30:00.558Z,97594.73
2019-03-12T17:32:30.068Z,97595.13
2019-03-12T17:34:59.441Z,97591.98
2019-03-12T17:40:52.805Z,97575.18
2019-03-12T17:43:22.128Z,97586.02
2019-03-12T17:45:51.519Z,97590.55
2019-03-12T17:48:20.890Z,97579.48
2019-03-12T17:50:55.149Z,97570.61
2019-03-12T17:53:27.834Z,97568.64
2019-03-12T17:56:00.215Z,97567.79
2019-03-12T17:58:29.653Z,97565.87
2019-03-12T18:00:59.080Z,97570.47
2019-03-12T18:03:28.495Z,97565.77
2019-03-12T18:05:57.941Z,97564.29
2019-03-12T18:08:27.446Z,97559.84
2019-03-12T18:10:57.142Z,97544.41
2019-03-12T18:13:28.023Z,97544.41
2019-03-12T18:15:57.389Z,97515.91
2019-03-12T18:18:26.890Z,97515.91
2019-03-12T18:20:56.480Z,97522.55
2019-03-12T18:23:26.004Z,97522.06
2019-03-12T18:25:55.726Z,97522.06
2019-03-12T18:28:25.118Z,97516.82
2019-03-12T18:30:54.572Z,97507.47
2019-03-12T18:33:24.156Z,97495.80
2019-03-12T18:35:53.582Z,97489.03
2019-03-12T18:38:23.009Z,97484.98
2019-03-12T18:40:52.418Z,97475.59
2019-03-12T18:43:21.800Z,97472.24
2019-03-12T18:45:51.282Z,97478.11
2019-03-12T18:48:20.662Z,97465.11
2019-03-12T18:50:50.159Z,97463.52
2019-03-12T18:53:19.766Z,97450.09
2019-03-12T18:55:59.712Z,97448.81
2019-03-12T18:58:29.096Z,97437.08
2019-03-12T19:01:00.715Z,97435.06
2019-03-12T19:03:30.161Z,97427.75
2019-03-12T19:05:59.772Z,97420.72
2019-03-12T19:08:29.381Z,97422.25
2019-03-12T19:10:58.805Z,97423.41
2019-03-12T19:13:28.379Z,97404.00
2019-03-12T19:15:57.768Z,97409.95
2019-03-12T19:18:27.302Z,97395.10
2019-03-12T19:20:56.698Z,97382.48
2019-03-12T19:23:26.113Z,97386.41
2019-03-12T19:25:56.205Z,97392.98
2019-03-12T19:28:25.619Z,97387.67
2019-03-12T19:31:05.307Z,97385.04
2019-03-12T19:33:34.692Z,97389.09
2019-03-12T19:36:04.297Z,97370.30
2019-03-12T19:38:33.735Z,97370.30
2019-03-12T19:41:03.862Z,97363.36
2019-03-12T19:43:33.332Z,97354.00
2019-03-12T19:46:02.704Z,97335.95
2019-03-12T19:48:32.134Z,97332.09
2019-03-12T19:51:01.516Z,97323.18
2019-03-12T19:53:30.909Z,97310.22
2019-03-12T19:56:00.620Z,97309.09
2019-03-12T19:58:30.045Z,97299.53
2019-03-12T20:01:00.892Z,97291.97
2019-03-12T20:03:30.417Z,97294.27
2019-03-12T20:05:59.809Z,97294.27
2019-03-12T20:08:29.298Z,97290.73
2019-03-12T20:12:00.885Z,97280.33
2019-03-12T20:15:29.430Z,97267.89
2019-03-12T20:18:47.885Z,97266.92
2019-03-12T20:21:48.242Z,97249.09
2019-03-12T20:25:16.015Z,97242.64
2019-03-12T20:28:28.477Z,97240.07
2019-03-12T20:31:34.203Z,97238.75
2019-03-12T20:34:53.687Z,97233.36
2019-03-12T20:37:59.833Z,97223.58
2019-03-12T20:41:09.233Z,97225.47
2019-03-12T20:44:18.748Z,97216.78
2019-03-12T20:47:43.212Z,97219.86
2019-03-12T20:50:48.689Z,97225.11
2019-03-12T20:54:16.913Z,97214.13
2019-03-12T20:57:38.429Z,97210.70
2019-03-12T21:00:44.855Z,97207.25
2019-03-12T21:03:53.825Z,97201.89
2019-03-12T21:06:50.830Z,97203.05
2019-03-12T21:10:22.586Z,97198.69
2019-03-12T21:13:31.980Z,97187.81
2019-03-12T21:16:51.189Z,97193.02
2019-03-12T21:20:21.154Z,97174.31
2019-03-12T21:23:42.229Z,97162.39
2019-03-12T21:26:52.734Z,97164.03
2019-03-12T21:29:45.675Z,97150.34
2019-03-12T21:32:16.591Z,97134.69
2019-03-12T21:34:46.406Z,97138.23
2019-03-12T21:37:16.218Z,97131.78
2019-03-12T21:39:55.288Z,97121.88
2019-03-12T21:42:16.764Z,97109.67
2019-03-12T21:44:46.145Z,97092.69
2019-03-12T21:47:15.576Z,97094.09
2019-03-12T21:49:45.186Z,97079.91
2019-03-12T21:52:14.641Z,97073.82
2019-03-12T21:54:44.399Z,97045.80
2019-03-12T21:57:13.777Z,97052.19
2019-03-12T21:59:43.158Z,97047.55
2019-03-12T22:02:12.575Z,97046.86
2019-03-12T22:04:41.938Z,97047.66
2019-03-12T22:07:11.418Z,97032.62
2019-03-12T22:09:40.790Z,97036.41
2019-03-12T22:12:10.163Z,97035.99
2019-03-12T22:14:39.565Z,97035.09
2019-03-12T22:17:09.047Z,97023.02
2019-03-12T22:19:38.554Z,97021.29
2019-03-12T22:22:30.158Z,97013.37
2019-03-12T22:24:59.557Z,97007.50
2019-03-12T22:27:28.925Z,96995.71
2019-03-12T22:29:58.321Z,96999.02
2019-03-12T22:32:27.744Z,96990.48
2019-03-12T22:34:57.130Z,96981.09
2019-03-12T22:37:26.565Z,96973.15
2019-03-12T22:39:55.954Z,96956.62
2019-03-12T22:42:25.498Z,96948.02
2019-03-12T22:44:55.107Z,96956.55
2019-03-12T22:47:24.483Z,96944.16
2019-03-12T22:49:54.015Z,96944.16
2019-03-12T22:52:23.394Z,96950.06
2019-03-12T22:54:52.792Z,96942.95
2019-03-12T22:57:22.161Z,96934.97
2019-03-12T22:59:51.792Z,96924.72
2019-03-12T23:02:21.361Z,96922.56
2019-03-12T23:04:50.835Z,96930.55
2019-03-12T23:07:20.243Z,96931.63
2019-03-12T23:09:49.586Z,96925.89
2019-03-12T23:12:19.494Z,96917.28
2019-03-12T23:14:48.936Z,96914.44
2019-03-12T23:17:18.281Z,96906.47
2019-03-12T23:19:48.071Z,96910.69
2019-03-12T23:22:17.522Z,96907.41
2019-03-12T23:24:46.931Z,96901.58
2019-03-12T23:27:16.404Z,96890.05
2019-03-12T23:29:45.889Z,96893.91
2019-03-12T23:32:16.088Z,96882.23
2019-03-12T23:34:45.474Z,96884.59
2019-03-12T23:37:15.076Z,96885.30
2019-03-12T23:39:44.476Z,96874.56
2019-03-12T23:42:29.337Z,96870.92
2019-03-12T23:44:58.727Z,96874.95
2019-03-12T23:47:28.610Z,96876.09
2019-03-12T23:49:58.024Z,96882.27
2019-03-12T23:52:27.403Z,96877.09
2019-03-12T23:54:56.798Z,96881.47
2019-03-12T23:57:26.215Z,96882.27
2019-03-12T23:59:55.638Z,96891.70
